Aeroporto :
LOGIN :

Iscrizione | Disclaimer

   EN    FR    IT 

 










Sommario :    VFR   VFR Marginale   IFR   IFR Intensivo   IFR Molto Intensivo
Visibilità : 
Base nubi : 
>= 8 km
>= 3000ft
5 / 8 km
1000 / 3000 ft
1500m / 5 km
500 / 1000 ft
800 / 1500m
200 / 500 ft
< 800m
< 200 ft
Simboli :   Temporali  Nebbia  Neve Forte  Precipitazioni Forti  Vento > 20 kt
SIGMETs :   Varie  Temporali  Ghiacco  Turbolenza  Onda orograficha  Ceneri Vulcaniche







- Altitudine del aeroporto : 20 ft


EBFN - Koksijde

ULTIMO METAR :
  • 220825Z 06010KT 8000 SKC M01/M03 Q1024 BLU BLU TEMPO WHT

METARs OBSOLETI :
  • 220803Z 06009KT 8000 SKC M01/M03 Q1024 BLU BLU TEMPO WHT
  • 220755Z 06009KT 7000 SKC M01/M03 Q1024 WHT WHT TEMPO GRN
  • 220725Z 06009KT 6000 SKC M02/M03 Q1024 WHT WHT TEMPO GRN
  • 220655Z 06009KT 6000 SKC M02/M03 Q1024 WHT WHT TEMPO GRN
  • 220625Z 06007KT 6000 SKC M02/M03 Q1024 WHT WHT TEMPO GRN

TAF TAF EBFN
Valido dal 22 a 07 ore il 22 a 16 ore UTC


220541Z 2207/2216 06010KT 6000 SKC
TEMPO 2207/2209 4000 BR
TEMPO 2209/2216 8000
TEMPO 2212/2216 SCT030
Nessun NOTAM noto per questo aeroporto.
1 SIGMET conosciuto per la FIR Brussels (EBBU) :
 
Turbolenza severa
EBBU SIGMET 03 VALID 220800/221200 EBBR
EBBU BRUSSELS FIR SEV TURB FCST E OF E00315 FL170/250 MOV W 20KT WKN=



MetMap, La meteo Aeronautica in un colpo d'occhio ! - Copyright ORBIFLY Dicembre 2007 - Disclaimer

ORBIFLY MET'MAP TEAM :

Programmazione e sviluppo : Alexandra Zaïnal
Concezione e sviluppo : Baudouin d'Aumeries
Co-Programmazione e sviluppo : Marc-Olivier Méhu
Supporto tecnico e logistico : Manuel Goepfert
Aiuto per la traduzione : Arnaldo La Scala

Contatto : metmap@orbifly.com




FONTI E CREDITI :

   NOAA